createdAt,value
2022-10-18T00:00:54.501Z,-5.41
2022-10-18T00:03:57.510Z,-5.42
2022-10-18T00:07:01.448Z,-5.23
2022-10-18T00:10:05.681Z,-5.12
2022-10-18T00:13:09.210Z,-4.97
2022-10-18T00:16:14.694Z,-4.94
2022-10-18T00:19:18.296Z,-4.76
2022-10-18T00:22:21.418Z,-4.07
2022-10-18T00:25:24.263Z,-3.26
2022-10-18T00:28:27.251Z,-2.73
2022-10-18T00:31:33.855Z,-2.31
2022-10-18T00:34:38.671Z,-1.90
2022-10-18T00:37:42.535Z,-1.66
2022-10-18T00:40:46.439Z,-1.48
2022-10-18T00:43:52.321Z,-1.26
2022-10-18T00:47:12.133Z,-0.93
2022-10-18T00:50:16.908Z,-0.61
2022-10-18T00:53:23.615Z,0.15
2022-10-18T00:56:31.104Z,0.57
2022-10-18T00:59:36.214Z,0.69
2022-10-18T01:02:42.737Z,0.70
2022-10-18T01:05:48.744Z,0.58
2022-10-18T01:09:00.539Z,1.11
2022-10-18T01:12:13.175Z,1.30
2022-10-18T01:15:32.811Z,1.56
2022-10-18T01:18:54.102Z,1.63
2022-10-18T01:22:15.097Z,1.76
2022-10-18T01:25:30.566Z,1.62
2022-10-18T01:28:50.690Z,1.92
2022-10-18T01:32:08.359Z,2.14
2022-10-18T01:35:18.806Z,2.33
2022-10-18T01:38:25.932Z,2.00
2022-10-18T01:41:30.615Z,1.92
2022-10-18T01:44:35.631Z,2.16
2022-10-18T01:47:40.775Z,2.33
2022-10-18T01:50:43.701Z,2.07
2022-10-18T01:53:47.014Z,2.16
2022-10-18T01:57:09.327Z,2.52
2022-10-18T02:00:25.713Z,2.53
2022-10-18T02:03:30.589Z,2.92
2022-10-18T02:06:39.189Z,3.42
2022-10-18T02:13:26.133Z,4.41
2022-10-18T02:16:31.856Z,4.36
2022-10-18T02:19:51.140Z,4.39
2022-10-18T02:22:58.243Z,4.53
2022-10-18T02:26:01.900Z,4.64
2022-10-18T02:29:05.798Z,5.11
2022-10-18T02:32:52.323Z,5.53
2022-10-18T02:36:03.422Z,4.99
2022-10-18T02:39:12.532Z,4.90
2022-10-18T02:42:16.817Z,4.71
2022-10-18T02:45:21.623Z,4.98
2022-10-18T02:48:25.233Z,4.94
2022-10-18T02:51:28.785Z,5.19
2022-10-18T02:54:32.459Z,4.76
2022-10-18T02:57:35.557Z,4.67
2022-10-18T03:00:39.192Z,4.36
2022-10-18T03:03:42.579Z,4.62
2022-10-18T03:06:45.436Z,5.07
2022-10-18T03:09:48.657Z,5.30
2022-10-18T03:12:52.170Z,5.32
2022-10-18T03:15:55.668Z,5.31
2022-10-18T03:18:58.512Z,4.96
2022-10-18T03:22:03.681Z,4.99
2022-10-18T03:25:07.563Z,4.72
2022-10-18T03:28:11.488Z,4.49
2022-10-18T03:31:14.977Z,4.70
2022-10-18T03:34:19.276Z,4.94
2022-10-18T03:37:23.225Z,5.05
2022-10-18T03:40:27.225Z,4.96
2022-10-18T03:43:30.820Z,4.96
2022-10-18T03:46:34.922Z,4.96
2022-10-18T03:49:38.441Z,5.01
2022-10-18T03:52:41.781Z,4.86
2022-10-18T03:55:44.719Z,4.99
2022-10-18T03:58:48.286Z,5.46
2022-10-18T04:01:52.542Z,5.89
2022-10-18T04:04:56.725Z,6.17
2022-10-18T04:08:00.275Z,6.33
2022-10-18T04:11:12.953Z,6.50
2022-10-18T04:14:16.520Z,6.38
2022-10-18T04:17:20.071Z,6.02
2022-10-18T04:20:24.320Z,5.94
2022-10-18T04:23:27.850Z,5.99
2022-10-18T04:26:30.708Z,6.03
2022-10-18T04:29:34.451Z,5.96
2022-10-18T04:32:37.993Z,5.89
2022-10-18T04:35:41.487Z,6.17
2022-10-18T04:38:44.724Z,6.31
2022-10-18T04:41:48.329Z,6.39
2022-10-18T04:44:52.059Z,6.30
2022-10-18T04:47:56.130Z,6.17
2022-10-18T04:50:59.097Z,6.06
2022-10-18T04:54:03.631Z,6.10
2022-10-18T04:57:06.611Z,6.06
2022-10-18T05:00:10.219Z,6.10
2022-10-18T05:03:14.871Z,6.10
2022-10-18T05:06:18.415Z,5.96
2022-10-18T05:09:25.063Z,6.07
2022-10-18T05:12:29.244Z,6.31
2022-10-18T05:15:32.378Z,6.39
2022-10-18T05:18:35.765Z,6.48
2022-10-18T05:21:38.569Z,6.73
2022-10-18T05:24:41.842Z,6.84
2022-10-18T05:27:45.425Z,6.82
2022-10-18T05:30:49.382Z,6.83
2022-10-18T05:33:53.014Z,6.78
2022-10-18T05:36:56.822Z,6.75
2022-10-18T05:40:00.491Z,6.94
2022-10-18T05:43:03.707Z,7.33
2022-10-18T05:46:13.596Z,7.65
2022-10-18T05:49:17.100Z,7.72
2022-10-18T05:52:19.966Z,7.66
2022-10-18T05:55:23.875Z,7.51
2022-10-18T05:58:26.918Z,7.58
2022-10-18T06:01:30.837Z,7.69
2022-10-18T06:04:35.300Z,7.64
2022-10-18T06:07:39.129Z,7.44
2022-10-18T06:10:42.252Z,7.40
2022-10-18T06:13:50.333Z,7.44
2022-10-18T06:16:53.417Z,7.36
2022-10-18T06:19:57.451Z,7.38
2022-10-18T06:23:00.420Z,7.43
2022-10-18T06:26:06.952Z,7.40
2022-10-18T06:29:10.613Z,7.42
2022-10-18T06:32:14.057Z,7.53
2022-10-18T06:35:17.313Z,7.42
2022-10-18T06:38:21.266Z,7.46
2022-10-18T06:41:24.853Z,7.63
2022-10-18T06:44:28.023Z,7.79
2022-10-18T06:47:30.841Z,7.80
2022-10-18T06:50:34.097Z,7.73
2022-10-18T06:53:43.976Z,7.79
2022-10-18T06:56:58.829Z,7.73
2022-10-18T07:00:02.660Z,7.61
2022-10-18T07:03:06.619Z,7.45
2022-10-18T07:06:12.045Z,7.41
2022-10-18T07:09:16.040Z,7.35
2022-10-18T07:12:18.941Z,7.28
2022-10-18T07:15:24.855Z,7.24
2022-10-18T07:18:28.775Z,7.17
2022-10-18T07:21:32.631Z,7.15
2022-10-18T07:24:36.129Z,7.09
2022-10-18T07:27:41.961Z,7.06
2022-10-18T07:30:45.248Z,7.00
2022-10-18T07:33:48.468Z,6.89
2022-10-18T07:36:52.537Z,6.84
2022-10-18T07:39:56.182Z,6.80
2022-10-18T07:43:04.444Z,6.76
2022-10-18T07:46:08.487Z,6.72
2022-10-18T07:49:12.301Z,6.66
2022-10-18T07:52:15.861Z,6.64
2022-10-18T07:55:19.075Z,6.62
2022-10-18T07:58:22.647Z,6.60
2022-10-18T08:01:26.245Z,6.57
2022-10-18T08:04:29.208Z,6.52
2022-10-18T08:07:34.693Z,6.50
2022-10-18T08:10:38.431Z,6.54
2022-10-18T08:13:42.751Z,6.56
2022-10-18T08:16:46.322Z,6.61
2022-10-18T08:19:58.569Z,6.57
2022-10-18T08:23:13.105Z,6.51
2022-10-18T08:26:22.265Z,6.50
2022-10-18T08:29:29.224Z,6.45
2022-10-18T08:32:36.058Z,6.40
2022-10-18T08:35:39.354Z,6.34
2022-10-18T08:38:44.431Z,6.31
2022-10-18T08:42:14.221Z,6.20
2022-10-18T08:45:37.466Z,6.02
2022-10-18T08:48:45.801Z,5.96
2022-10-18T08:51:52.030Z,5.86
2022-10-18T08:55:10.843Z,5.74
2022-10-18T08:58:27.245Z,5.66
2022-10-18T09:01:52.412Z,5.57
2022-10-18T09:05:08.174Z,5.51
2022-10-18T09:08:26.008Z,5.42
2022-10-18T09:11:34.888Z,5.32
2022-10-18T09:15:13.849Z,5.27
2022-10-18T09:18:47.359Z,5.21
2022-10-18T09:22:05.001Z,5.12
2022-10-18T09:25:38.089Z,4.95
2022-10-18T09:28:59.527Z,4.85
2022-10-18T09:32:23.375Z,4.72
2022-10-18T09:35:43.992Z,4.57
2022-10-18T09:38:56.125Z,4.44
2022-10-18T09:42:27.018Z,4.37
2022-10-18T09:45:40.711Z,4.27
2022-10-18T09:48:50.120Z,4.14
2022-10-18T09:51:55.027Z,4.00
2022-10-18T09:55:02.367Z,3.95
2022-10-18T09:58:08.658Z,3.89
2022-10-18T10:01:16.619Z,3.79
2022-10-18T10:04:19.849Z,3.70
2022-10-18T10:07:32.561Z,3.64
2022-10-18T10:10:46.851Z,3.64
2022-10-18T10:13:50.305Z,3.61
2022-10-18T10:17:21.769Z,3.62
2022-10-18T10:20:31.478Z,3.60
2022-10-18T10:23:56.742Z,3.59
2022-10-18T10:27:06.944Z,3.51
2022-10-18T10:30:25.713Z,3.42
2022-10-18T10:33:40.072Z,3.35
2022-10-18T10:36:55.602Z,3.16
2022-10-18T10:40:38.945Z,3.00
2022-10-18T10:43:46.376Z,2.99
2022-10-18T10:46:51.921Z,2.98
2022-10-18T10:49:58.197Z,2.95
2022-10-18T10:53:04.391Z,2.92
2022-10-18T10:56:24.877Z,2.90
2022-10-18T11:02:59.306Z,2.85
2022-10-18T11:06:48.274Z,2.75
2022-10-18T11:10:16.406Z,2.79
2022-10-18T11:13:50.004Z,2.76
2022-10-18T11:17:31.333Z,2.68
2022-10-18T11:20:50.140Z,2.59
2022-10-18T11:23:54.550Z,2.51
2022-10-18T11:27:19.641Z,2.43
2022-10-18T11:30:42.245Z,2.45
2022-10-18T11:34:09.270Z,2.36
2022-10-18T11:37:41.200Z,2.27
2022-10-18T11:41:08.791Z,2.33
2022-10-18T11:44:28.946Z,2.37
2022-10-18T11:47:46.647Z,2.29
2022-10-18T11:51:23.767Z,2.20
2022-10-18T11:54:50.083Z,2.15
2022-10-18T11:58:33.646Z,2.01
2022-10-18T12:01:56.446Z,2.00
2022-10-18T12:05:24.209Z,1.98
2022-10-18T12:08:42.432Z,1.89
2022-10-18T12:11:55.801Z,1.78
2022-10-18T12:15:31.423Z,1.73
2022-10-18T12:18:50.109Z,1.73
2022-10-18T12:22:28.159Z,1.65
2022-10-18T12:25:41.186Z,1.61
2022-10-18T12:29:18.292Z,1.63
2022-10-18T12:32:56.279Z,1.65
2022-10-18T12:36:33.426Z,1.68
2022-10-18T12:40:09.816Z,1.78
2022-10-18T12:43:42.915Z,1.91
2022-10-18T12:47:01.390Z,1.84
2022-10-18T12:50:10.442Z,1.84
2022-10-18T12:53:15.548Z,1.69
2022-10-18T12:56:33.233Z,1.60
2022-10-18T12:59:37.586Z,1.56
2022-10-18T13:02:42.459Z,1.53
2022-10-18T13:05:54.388Z,1.42
2022-10-18T13:09:20.628Z,1.33
2022-10-18T13:12:25.753Z,1.26
2022-10-18T13:15:38.141Z,1.22
2022-10-18T13:18:54.397Z,1.21
2022-10-18T13:22:13.083Z,1.30
2022-10-18T13:25:27.879Z,1.31
2022-10-18T13:28:36.599Z,1.21
2022-10-18T13:31:57.846Z,1.10
2022-10-18T13:35:02.171Z,1.06
2022-10-18T13:38:17.238Z,0.96
2022-10-18T13:44:31.021Z,0.84
2022-10-18T13:47:37.663Z,0.66
2022-10-18T13:50:43.762Z,0.67
2022-10-18T13:54:05.464Z,0.76
2022-10-18T13:57:34.277Z,0.75
2022-10-18T14:01:39.047Z,0.72
2022-10-18T14:05:25.078Z,0.68
2022-10-18T14:08:53.390Z,0.69
2022-10-18T14:12:30.432Z,0.67
2022-10-18T14:15:46.531Z,0.62
2022-10-18T14:18:56.335Z,0.60
2022-10-18T14:22:20.359Z,0.59
2022-10-18T14:25:39.325Z,0.56
2022-10-18T14:29:00.288Z,0.52
2022-10-18T14:32:09.013Z,0.45
2022-10-18T14:35:37.127Z,0.41
2022-10-18T14:39:05.974Z,0.43
2022-10-18T14:42:22.790Z,0.39
2022-10-18T14:45:28.962Z,0.39
2022-10-18T14:48:34.183Z,0.40
2022-10-18T14:51:41.544Z,0.33
2022-10-18T14:54:46.618Z,0.27
2022-10-18T14:57:50.930Z,0.30
2022-10-18T15:00:55.398Z,0.30
2022-10-18T15:04:00.468Z,0.19
2022-10-18T15:07:07.471Z,0.18
2022-10-18T15:10:22.440Z,0.17
2022-10-18T15:13:27.524Z,0.19
2022-10-18T15:16:33.109Z,0.32
2022-10-18T15:23:28.385Z,0.39
2022-10-18T15:26:47.976Z,0.54
2022-10-18T15:29:51.712Z,0.61
2022-10-18T15:33:02.491Z,0.66
2022-10-18T15:36:29.106Z,0.58
2022-10-18T15:39:33.098Z,0.53
2022-10-18T15:42:38.379Z,0.39
2022-10-18T15:45:48.889Z,0.30
2022-10-18T15:48:51.848Z,0.16
2022-10-18T15:52:36.632Z,0.14
2022-10-18T15:55:48.179Z,0.13
2022-10-18T15:58:52.277Z,0.04
2022-10-18T16:01:55.750Z,0.08
2022-10-18T16:05:03.489Z,0.15
2022-10-18T16:08:07.387Z,0.15
2022-10-18T16:11:25.779Z,0.12
2022-10-18T16:14:30.639Z,0.17
2022-10-18T16:17:34.375Z,0.26
2022-10-18T16:20:38.709Z,0.37
2022-10-18T16:23:42.465Z,0.41
2022-10-18T16:26:46.190Z,0.42
2022-10-18T16:29:48.998Z,0.29
2022-10-18T16:32:52.894Z,0.12
2022-10-18T16:35:56.542Z,0.00
2022-10-18T16:39:03.085Z,-0.11
2022-10-18T16:42:05.854Z,-0.23
2022-10-18T16:45:10.634Z,-0.21
2022-10-18T16:48:18.515Z,-0.13
2022-10-18T16:51:22.075Z,-0.10
2022-10-18T16:54:25.143Z,-0.19
2022-10-18T16:57:27.881Z,-0.22
2022-10-18T17:00:31.144Z,-0.21
2022-10-18T17:03:34.885Z,-0.19
2022-10-18T17:06:38.439Z,-0.15
2022-10-18T17:09:41.561Z,-0.21
2022-10-18T17:12:44.881Z,-0.22
2022-10-18T17:15:48.684Z,-0.19
2022-10-18T17:18:52.282Z,-0.17
2022-10-18T17:22:00.152Z,-0.07
2022-10-18T17:25:06.303Z,-0.01
2022-10-18T17:28:14.026Z,-0.01
2022-10-18T17:31:17.465Z,-0.10
2022-10-18T17:34:21.653Z,-0.18
2022-10-18T17:37:25.202Z,-0.21
2022-10-18T17:40:28.390Z,-0.23
2022-10-18T17:43:32.057Z,-0.23
2022-10-18T17:46:34.987Z,-0.19
2022-10-18T17:49:38.634Z,-0.23
2022-10-18T17:56:01.239Z,-0.31
2022-10-18T17:59:05.233Z,-0.36
2022-10-18T18:02:08.144Z,-0.39
2022-10-18T18:05:11.563Z,-0.46
2022-10-18T18:08:15.458Z,-0.52
2022-10-18T18:11:19.500Z,-0.59
2022-10-18T18:14:22.708Z,-0.63
2022-10-18T18:17:33.977Z,-0.61
2022-10-18T18:20:42.899Z,-0.61
2022-10-18T18:23:46.707Z,-0.57
2022-10-18T18:26:49.741Z,-0.56
2022-10-18T18:29:53.557Z,-0.52
2022-10-18T18:32:56.959Z,-0.50
2022-10-18T18:36:01.257Z,-0.51
2022-10-18T18:39:09.687Z,-0.45
2022-10-18T18:42:12.895Z,-0.41
2022-10-18T18:45:15.722Z,-0.40
2022-10-18T18:48:19.865Z,-0.37
2022-10-18T18:51:25.177Z,-0.29
2022-10-18T18:54:30.247Z,-0.26
2022-10-18T18:57:33.312Z,-0.20
2022-10-18T19:00:43.305Z,-0.16
2022-10-18T19:03:50.656Z,-0.21
2022-10-18T19:06:54.225Z,-0.25
2022-10-18T19:09:57.135Z,-0.24
2022-10-18T19:13:00.119Z,-0.32
2022-10-18T19:16:20.649Z,-0.37
2022-10-18T19:19:26.180Z,-0.45
2022-10-18T19:22:30.244Z,-0.50
2022-10-18T19:25:33.642Z,-0.56
2022-10-18T19:28:37.158Z,-0.61
2022-10-18T19:31:41.127Z,-0.69
2022-10-18T19:34:45.257Z,-0.76
2022-10-18T19:37:48.700Z,-0.80
2022-10-18T19:40:53.860Z,-0.84
2022-10-18T19:43:58.092Z,-0.89
2022-10-18T19:47:01.577Z,-0.93
2022-10-18T19:50:04.576Z,-0.99
2022-10-18T19:53:08.030Z,-1.01
2022-10-18T19:56:19.396Z,-1.03
2022-10-18T19:59:23.826Z,-1.05
2022-10-18T20:02:27.079Z,-0.97
2022-10-18T20:05:30.257Z,-0.86
2022-10-18T20:08:35.264Z,-0.84
2022-10-18T20:11:38.864Z,-0.79
2022-10-18T20:14:42.376Z,-0.78
2022-10-18T20:17:45.218Z,-0.78
2022-10-18T20:20:49.124Z,-0.76
2022-10-18T20:23:53.632Z,-0.91
2022-10-18T20:26:57.028Z,-0.98
2022-10-18T20:30:00.519Z,-1.02
2022-10-18T20:33:03.391Z,-1.05
2022-10-18T20:36:09.148Z,-1.03
2022-10-18T20:39:12.655Z,-0.99
2022-10-18T20:42:15.696Z,-0.92
2022-10-18T20:45:19.259Z,-0.78
2022-10-18T20:48:22.862Z,-0.67
2022-10-18T20:51:26.148Z,-0.61
2022-10-18T20:54:29.028Z,-0.67
2022-10-18T20:57:34.280Z,-0.72
2022-10-18T21:00:39.363Z,-0.67
2022-10-18T21:03:44.493Z,-0.65
2022-10-18T21:06:47.345Z,-0.65
2022-10-18T21:09:51.175Z,-0.67
2022-10-18T21:12:54.217Z,-0.67
2022-10-18T21:15:58.780Z,-0.59
2022-10-18T21:19:06.398Z,-0.52
2022-10-18T21:22:09.525Z,-0.51
2022-10-18T21:25:12.460Z,-0.52
2022-10-18T21:28:17.223Z,-0.57
2022-10-18T21:31:22.845Z,-0.71
2022-10-18T21:34:27.079Z,-0.70
2022-10-18T21:37:30.824Z,-0.65
2022-10-18T21:40:37.138Z,-0.66
2022-10-18T21:43:41.728Z,-0.70
2022-10-18T21:46:45.216Z,-0.71
2022-10-18T21:49:48.065Z,-0.69
2022-10-18T21:52:51.396Z,-0.68
2022-10-18T21:55:54.945Z,-0.69
2022-10-18T21:58:59.357Z,-0.63
2022-10-18T22:02:03.447Z,-0.56
2022-10-18T22:05:09.785Z,-0.55
2022-10-18T22:08:14.268Z,-0.55
2022-10-18T22:11:18.713Z,-0.53
2022-10-18T22:14:22.697Z,-0.54
2022-10-18T22:17:25.566Z,-0.47
2022-10-18T22:20:28.524Z,-0.42
2022-10-18T22:23:37.199Z,-0.36
2022-10-18T22:26:42.231Z,-0.34
2022-10-18T22:29:45.123Z,-0.37
2022-10-18T22:32:48.715Z,-0.37
2022-10-18T22:35:52.107Z,-0.47
2022-10-18T22:38:55.212Z,-0.53
2022-10-18T22:41:58.458Z,-0.56
2022-10-18T22:45:01.373Z,-0.54
2022-10-18T22:48:05.171Z,-0.47
2022-10-18T22:51:08.724Z,-0.37
2022-10-18T22:54:12.371Z,-0.26
2022-10-18T22:57:15.957Z,-0.18
2022-10-18T23:00:19.517Z,-0.06
2022-10-18T23:03:22.569Z,0.09
2022-10-18T23:06:31.939Z,0.19
2022-10-18T23:09:34.956Z,0.30
2022-10-18T23:12:38.229Z,0.41
2022-10-18T23:15:41.400Z,0.46
2022-10-18T23:18:44.949Z,0.51
2022-10-18T23:21:48.508Z,0.57
2022-10-18T23:24:52.247Z,0.67
2022-10-18T23:27:55.253Z,0.72
2022-10-18T23:30:58.198Z,0.82
2022-10-18T23:34:03.760Z,0.88
2022-10-18T23:37:06.946Z,0.97
2022-10-18T23:40:10.355Z,1.08
2022-10-18T23:43:13.530Z,1.20
2022-10-18T23:46:17.811Z,1.27
2022-10-18T23:49:21.660Z,1.37
2022-10-18T23:52:25.311Z,1.47
2022-10-18T23:55:28.296Z,1.54
2022-10-18T23:58:33.316Z,1.59
